createdAt,value
2018-03-03T00:01:26.093Z,61.87
2018-03-03T00:13:36.276Z,61.33
2018-03-03T00:16:05.810Z,58.27
2018-03-03T00:18:33.922Z,59.00
2018-03-03T00:21:04.975Z,63.30
2018-03-03T00:23:34.226Z,65.20
2018-03-03T00:26:04.031Z,60.90
2018-03-03T00:28:33.233Z,59.83
2018-03-03T00:31:01.409Z,54.47
2018-03-03T00:33:33.025Z,57.60
2018-03-03T00:36:02.307Z,56.23
2018-03-03T00:38:31.643Z,59.37
2018-03-03T00:41:02.515Z,58.80
2018-03-03T00:43:32.266Z,58.00
2018-03-03T00:46:02.323Z,62.17
2018-03-03T00:48:31.146Z,60.10
2018-03-03T00:50:59.543Z,60.17
2018-03-03T00:53:28.908Z,62.23
2018-03-03T00:55:57.414Z,58.87
2018-03-03T00:58:28.441Z,61.87
2018-03-03T01:00:56.212Z,59.43
2018-03-03T01:03:27.473Z,62.77
2018-03-03T01:05:57.397Z,61.47
2018-03-03T01:08:38.930Z,58.10
2018-03-03T01:11:07.934Z,56.47
2018-03-03T01:13:38.506Z,58.47
2018-03-03T01:16:08.281Z,58.50
2018-03-03T01:18:38.362Z,58.80
2018-03-03T01:21:07.204Z,57.40
2018-03-03T01:23:36.622Z,57.00
2018-03-03T01:26:05.912Z,59.73
2018-03-03T01:28:34.739Z,54.60
2018-03-03T01:31:08.603Z,55.23
2018-03-03T01:33:37.727Z,59.83
2018-03-03T01:36:08.643Z,54.30
2018-03-03T01:38:38.583Z,58.73
2018-03-03T01:41:08.961Z,58.73
2018-03-03T01:43:38.958Z,58.60
2018-03-03T01:46:09.209Z,57.90
2018-03-03T01:48:39.194Z,55.87
2018-03-03T01:51:09.742Z,55.30
2018-03-03T01:53:38.854Z,57.63
2018-03-03T01:56:07.381Z,58.80
2018-03-03T01:58:42.998Z,57.60
2018-03-03T02:01:12.661Z,58.37
2018-03-03T02:03:41.930Z,57.90
2018-03-03T02:06:13.224Z,57.57
2018-03-03T02:08:44.016Z,58.60
2018-03-03T02:11:14.958Z,57.77
2018-03-03T02:13:44.108Z,59.97
2018-03-03T02:16:13.822Z,59.17
2018-03-03T02:18:43.749Z,59.63
2018-03-03T02:21:13.427Z,56.90
2018-03-03T02:23:42.438Z,56.73
2018-03-03T02:26:12.551Z,56.70
2018-03-03T02:28:42.014Z,58.87
2018-03-03T02:31:12.134Z,56.13
2018-03-03T02:33:41.072Z,54.90
2018-03-03T02:36:10.783Z,58.20
2018-03-03T02:38:39.365Z,54.17
2018-03-03T02:41:08.399Z,56.50
2018-03-03T02:43:36.442Z,57.60
2018-03-03T02:46:05.958Z,55.80
2018-03-03T02:48:34.489Z,58.67
2018-03-03T02:51:05.622Z,57.10
2018-03-03T02:53:35.872Z,55.57
2018-03-03T02:56:04.783Z,57.50
2018-03-03T02:58:33.247Z,55.23
2018-03-03T03:01:01.139Z,60.33
2018-03-03T03:03:31.153Z,57.00
2018-03-03T03:06:01.883Z,142.17
2018-03-03T03:08:30.526Z,90.73
2018-03-03T03:10:58.515Z,59.97
2018-03-03T03:13:29.089Z,54.07
2018-03-03T03:15:58.218Z,56.53
2018-03-03T03:18:28.375Z,54.47
2018-03-03T03:20:58.490Z,54.67
2018-03-03T03:23:27.123Z,55.60
2018-03-03T03:25:55.490Z,54.87
2018-03-03T03:28:25.419Z,53.70
2018-03-03T03:30:58.287Z,57.47
2018-03-03T03:33:27.355Z,57.80
2018-03-03T03:35:57.866Z,57.87
2018-03-03T03:38:28.371Z,57.50
2018-03-03T03:40:58.235Z,57.40
2018-03-03T03:43:29.243Z,56.13
2018-03-03T03:45:59.475Z,58.23
2018-03-03T03:48:28.585Z,58.20
2018-03-03T03:50:58.231Z,58.60
2018-03-03T03:53:27.392Z,59.17
2018-03-03T03:55:56.203Z,61.80
2018-03-03T03:58:27.401Z,58.10
2018-03-03T04:00:55.908Z,59.07
2018-03-03T04:03:24.329Z,62.77
2018-03-03T04:05:52.767Z,58.30
2018-03-03T04:08:21.768Z,58.50
2018-03-03T04:10:52.393Z,57.70
2018-03-03T04:13:20.559Z,60.50
2018-03-03T04:15:48.813Z,57.83
2018-03-03T04:18:17.329Z,62.70
2018-03-03T04:20:46.934Z,59.30
2018-03-03T04:23:16.046Z,54.70
2018-03-03T04:25:44.412Z,56.37
2018-03-03T04:28:13.406Z,56.50
2018-03-03T04:30:42.338Z,53.37
2018-03-03T04:33:11.610Z,55.97
2018-03-03T04:35:40.779Z,52.77
2018-03-03T04:38:11.520Z,55.70
2018-03-03T04:40:40.114Z,53.00
2018-03-03T04:43:09.511Z,52.10
2018-03-03T04:45:39.714Z,52.77
2018-03-03T04:48:08.565Z,52.20
2018-03-03T04:50:38.255Z,51.97
2018-03-03T04:53:08.153Z,51.73
2018-03-03T04:55:37.089Z,53.37
2018-03-03T04:58:07.088Z,51.30
2018-03-03T05:00:42.668Z,50.90
2018-03-03T05:03:17.330Z,50.90
2018-03-03T05:05:50.554Z,52.10
2018-03-03T05:11:19.337Z,50.03
2018-03-03T05:13:58.688Z,49.70
2018-03-03T05:16:31.905Z,52.23
2018-03-03T05:19:15.984Z,52.30
2018-03-03T05:21:49.115Z,55.43
2018-03-03T05:24:22.724Z,52.70
2018-03-03T05:26:57.845Z,53.03
2018-03-03T05:29:32.960Z,53.83
2018-03-03T05:32:08.587Z,52.00
2018-03-03T05:47:28.007Z,49.00
2018-03-03T05:53:17.233Z,51.87
2018-03-03T05:56:23.797Z,53.83
2018-03-03T05:58:58.411Z,52.67
2018-03-03T06:01:32.418Z,49.37
2018-03-03T06:10:20.295Z,51.93
2018-03-03T06:12:49.286Z,50.63
2018-03-03T06:15:19.480Z,51.23
2018-03-03T06:17:50.324Z,50.37
2018-03-03T06:20:20.841Z,49.60
2018-03-03T06:22:51.435Z,47.80
2018-03-03T06:25:21.922Z,49.77
2018-03-03T06:27:50.544Z,49.00
2018-03-03T06:30:20.244Z,50.13
2018-03-03T06:32:49.090Z,48.03
2018-03-03T06:35:18.964Z,48.50
2018-03-03T06:37:47.785Z,49.30
2018-03-03T06:40:16.736Z,48.50
2018-03-03T06:42:44.960Z,50.40
2018-03-03T06:45:12.992Z,47.93
2018-03-03T06:47:44.100Z,47.37
2018-03-03T06:50:14.385Z,52.70
2018-03-03T06:52:42.413Z,50.13
2018-03-03T06:55:12.594Z,50.87
2018-03-03T06:57:42.358Z,51.20
2018-03-03T07:00:12.701Z,50.67
2018-03-03T07:02:42.961Z,54.70
2018-03-03T07:05:12.095Z,50.57
2018-03-03T07:17:25.599Z,45.10
2018-03-03T07:19:55.250Z,44.73
2018-03-03T07:22:31.064Z,43.50
2018-03-03T07:24:59.949Z,42.90
2018-03-03T07:27:29.128Z,45.00
2018-03-03T07:29:58.125Z,46.30
2018-03-03T07:32:26.930Z,44.20
2018-03-03T07:34:55.089Z,42.60
2018-03-03T07:37:23.707Z,44.70
2018-03-03T07:39:52.486Z,56.40
2018-03-03T07:42:21.581Z,46.77
2018-03-03T07:44:50.722Z,44.20
2018-03-03T07:47:19.203Z,45.70
2018-03-03T07:49:48.437Z,41.07
2018-03-03T07:52:19.728Z,41.50
2018-03-03T07:54:48.397Z,43.00
2018-03-03T07:57:18.031Z,42.20
2018-03-03T07:59:47.611Z,41.43
2018-03-03T08:02:18.820Z,41.73
2018-03-03T08:04:46.581Z,42.10
2018-03-03T08:07:16.383Z,42.47
2018-03-03T08:09:46.097Z,39.07
2018-03-03T08:12:16.421Z,41.10
2018-03-03T08:14:46.554Z,40.10
2018-03-03T08:17:17.263Z,37.50
2018-03-03T08:19:46.700Z,41.77
2018-03-03T08:22:16.258Z,38.40
2018-03-03T08:24:45.294Z,39.27
2018-03-03T08:27:16.934Z,37.77
2018-03-03T08:29:45.432Z,36.47
2018-03-03T08:32:13.805Z,38.60
2018-03-03T08:34:43.975Z,37.13
2018-03-03T08:37:12.946Z,38.30
2018-03-03T08:39:41.593Z,39.43
2018-03-03T08:42:11.063Z,37.97
2018-03-03T08:44:39.935Z,37.37
2018-03-03T08:47:09.976Z,38.30
2018-03-03T08:49:39.665Z,37.00
2018-03-03T08:52:08.627Z,34.40
2018-03-03T08:54:37.510Z,37.20
2018-03-03T08:57:06.453Z,37.13
2018-03-03T08:59:34.785Z,36.23
2018-03-03T09:02:04.114Z,34.70
2018-03-03T09:04:35.819Z,35.37
2018-03-03T09:07:04.724Z,33.90
2018-03-03T09:09:33.589Z,33.90
2018-03-03T09:12:03.198Z,36.17
2018-03-03T09:14:32.641Z,34.77
2018-03-03T09:17:04.279Z,35.07
2018-03-03T09:19:35.132Z,34.07
2018-03-03T09:24:42.717Z,35.27
2018-03-03T09:27:10.974Z,34.70
2018-03-03T09:29:41.049Z,32.83
2018-03-03T09:32:08.787Z,34.07
2018-03-03T09:34:38.114Z,34.70
2018-03-03T09:37:07.939Z,35.37
2018-03-03T09:39:37.977Z,35.27
2018-03-03T09:42:09.674Z,38.30
2018-03-03T09:44:39.066Z,36.87
2018-03-03T09:47:08.052Z,39.23
2018-03-03T09:49:39.397Z,34.43
2018-03-03T09:52:07.865Z,36.80
2018-03-03T09:54:36.897Z,36.60
2018-03-03T09:57:05.231Z,36.30
2018-03-03T09:59:34.442Z,34.73
2018-03-03T10:02:06.290Z,36.80
2018-03-03T10:04:30.390Z,34.90
2018-03-03T10:06:59.651Z,37.80
2018-03-03T10:22:25.565Z,33.40
2018-03-03T10:24:55.380Z,36.90
2018-03-03T10:27:25.070Z,34.70
2018-03-03T10:29:54.565Z,35.80
2018-03-03T10:32:25.952Z,35.73
2018-03-03T10:34:56.617Z,35.83
2018-03-03T10:37:25.730Z,36.37
2018-03-03T10:39:53.913Z,35.40
2018-03-03T10:52:13.898Z,34.07
2018-03-03T10:54:43.171Z,36.27
2018-03-03T10:57:13.218Z,36.83
2018-03-03T10:59:43.114Z,35.57
2018-03-03T11:02:13.353Z,36.70
2018-03-03T11:04:45.284Z,34.80
2018-03-03T11:07:14.053Z,35.60
2018-03-03T11:09:42.032Z,37.10
2018-03-03T11:12:10.468Z,33.30
2018-03-03T11:14:40.087Z,36.10
2018-03-03T11:17:08.198Z,37.80
2018-03-03T11:19:39.302Z,37.17
2018-03-03T11:22:09.141Z,36.50
2018-03-03T11:24:41.005Z,34.30
2018-03-03T11:27:10.050Z,35.33
2018-03-03T11:29:40.199Z,36.70
2018-03-03T11:32:10.731Z,33.60
2018-03-03T11:34:38.794Z,35.00
2018-03-03T11:37:07.450Z,36.10
2018-03-03T11:39:35.941Z,36.40
2018-03-03T11:42:05.427Z,34.50
2018-03-03T11:44:35.331Z,34.60
2018-03-03T11:47:06.947Z,35.43
2018-03-03T11:49:35.290Z,34.57
2018-03-03T11:52:03.622Z,34.23
2018-03-03T11:54:34.430Z,36.30
2018-03-03T11:57:04.492Z,34.23
2018-03-03T11:59:34.021Z,36.63
2018-03-03T12:02:01.647Z,35.53
2018-03-03T12:04:32.230Z,34.57
2018-03-03T12:07:02.428Z,35.00
2018-03-03T12:09:31.030Z,35.37
2018-03-03T12:11:59.391Z,34.10
2018-03-03T12:14:29.059Z,36.07
2018-03-03T12:16:58.856Z,35.20
2018-03-03T12:19:26.485Z,34.67
2018-03-03T12:31:36.077Z,31.90
2018-03-03T12:34:04.946Z,31.03
2018-03-03T12:36:35.334Z,30.40
2018-03-03T12:39:05.742Z,30.00
2018-03-03T12:41:35.823Z,30.33
2018-03-03T12:44:04.811Z,33.67
2018-03-03T12:46:34.598Z,32.57
2018-03-03T12:49:04.317Z,35.40
2018-03-03T12:51:34.101Z,35.33
2018-03-03T12:54:03.349Z,35.57
2018-03-03T12:56:35.080Z,35.07
2018-03-03T12:59:04.286Z,36.40
2018-03-03T13:01:37.653Z,33.70
2018-03-03T13:04:07.784Z,32.90
2018-03-03T13:06:37.407Z,33.17
2018-03-03T13:09:07.180Z,33.43
2018-03-03T13:11:36.601Z,33.60
2018-03-03T13:14:06.332Z,34.60
2018-03-03T13:26:13.944Z,34.30
2018-03-03T13:28:43.301Z,36.47
2018-03-03T13:31:13.024Z,36.27
2018-03-03T13:33:42.980Z,37.00
2018-03-03T13:36:12.840Z,36.30
2018-03-03T13:38:42.935Z,35.67
2018-03-03T13:41:12.112Z,36.10
2018-03-03T13:43:40.780Z,36.07
2018-03-03T13:46:09.204Z,34.23
2018-03-03T13:48:37.899Z,34.70
2018-03-03T13:51:07.098Z,35.43
2018-03-03T13:53:35.984Z,35.90
2018-03-03T13:56:05.293Z,33.80
2018-03-03T13:58:34.622Z,33.77
2018-03-03T14:01:04.755Z,32.80
2018-03-03T14:03:34.634Z,36.47
2018-03-03T14:06:04.705Z,36.77
2018-03-03T14:08:33.764Z,36.97
2018-03-03T14:11:02.222Z,33.83
2018-03-03T14:13:33.032Z,34.87
2018-03-03T14:16:01.208Z,34.00
2018-03-03T14:18:29.206Z,34.07
2018-03-03T14:20:56.905Z,33.13
2018-03-03T14:23:27.645Z,34.30
2018-03-03T14:25:56.245Z,33.00
2018-03-03T14:28:25.259Z,33.90
2018-03-03T14:40:40.462Z,26.47
2018-03-03T14:43:08.988Z,26.70
2018-03-03T14:45:38.731Z,27.93
2018-03-03T14:48:06.319Z,28.93
2018-03-03T14:50:34.879Z,28.07
2018-03-03T14:53:04.690Z,27.70
2018-03-03T14:55:34.669Z,27.97
2018-03-03T14:58:03.373Z,29.27
2018-03-03T15:00:33.613Z,29.73
2018-03-03T15:03:03.397Z,28.10
2018-03-03T15:05:32.694Z,28.40
2018-03-03T15:08:02.068Z,29.30
2018-03-03T15:10:33.008Z,29.70
2018-03-03T15:13:02.509Z,28.00
2018-03-03T15:15:33.057Z,27.30
2018-03-03T15:18:01.005Z,30.80
2018-03-03T15:20:31.010Z,30.50
2018-03-03T15:23:01.391Z,30.23
2018-03-03T15:25:30.983Z,28.90
2018-03-03T15:28:01.159Z,31.07
2018-03-03T15:40:10.171Z,29.53
2018-03-03T15:52:18.818Z,30.60
2018-03-03T15:54:47.091Z,33.37
2018-03-03T15:57:17.082Z,33.03
2018-03-03T15:59:48.189Z,33.27
2018-03-03T16:02:17.691Z,33.77
2018-03-03T16:04:48.519Z,35.30
2018-03-03T16:07:20.379Z,33.90
2018-03-03T16:09:48.800Z,33.00
2018-03-03T16:12:18.531Z,32.90
2018-03-03T16:14:48.588Z,35.77
2018-03-03T16:17:16.743Z,34.47
2018-03-03T16:19:47.016Z,34.10
2018-03-03T16:22:17.636Z,35.00
2018-03-03T16:24:47.950Z,34.60
2018-03-03T16:27:19.093Z,33.10
2018-03-03T16:29:49.175Z,36.50
2018-03-03T16:32:18.292Z,34.13
2018-03-03T16:34:48.706Z,35.27
2018-03-03T16:37:18.002Z,38.30
2018-03-03T16:39:45.555Z,34.53
2018-03-03T16:44:58.503Z,34.00
2018-03-03T16:47:26.554Z,35.23
2018-03-03T16:49:55.871Z,38.23
2018-03-03T16:52:25.308Z,40.40
2018-03-03T16:54:53.693Z,38.40
2018-03-03T16:57:23.377Z,37.40
2018-03-03T16:59:54.027Z,36.67
2018-03-03T17:02:23.930Z,37.93
2018-03-03T17:04:56.272Z,36.20
2018-03-03T17:07:26.202Z,36.93
2018-03-03T17:09:55.026Z,36.73
2018-03-03T17:22:05.335Z,32.80
2018-03-03T17:24:35.232Z,32.30
2018-03-03T17:27:04.565Z,33.80
2018-03-03T17:29:33.818Z,33.97
2018-03-03T17:32:02.018Z,35.50
2018-03-03T17:34:29.989Z,37.37
2018-03-03T17:37:00.072Z,36.47
2018-03-03T17:39:30.743Z,35.20
2018-03-03T17:42:01.284Z,38.40
2018-03-03T17:44:32.184Z,36.87
2018-03-03T17:47:00.246Z,38.47
2018-03-03T17:49:29.943Z,39.80
2018-03-03T17:51:59.118Z,38.13
2018-03-03T17:54:28.399Z,38.43
2018-03-03T17:56:57.129Z,37.20
2018-03-03T17:59:25.938Z,38.03
2018-03-03T18:01:55.866Z,37.13
2018-03-03T18:04:24.329Z,34.60
2018-03-03T18:06:53.083Z,37.20
2018-03-03T18:09:22.015Z,36.00
2018-03-03T18:12:00.883Z,35.10
2018-03-03T18:14:32.974Z,34.53
2018-03-03T18:17:03.706Z,35.80
2018-03-03T18:19:37.330Z,34.30
2018-03-03T18:22:06.531Z,33.20
2018-03-03T18:24:36.049Z,33.07
2018-03-03T18:27:04.662Z,44.03
2018-03-03T18:29:34.071Z,53.73
2018-03-03T18:32:04.540Z,48.80
2018-03-03T18:34:33.226Z,34.30
2018-03-03T18:37:02.531Z,33.30
2018-03-03T18:39:33.196Z,32.40
2018-03-03T18:42:01.291Z,32.97
2018-03-03T18:44:30.425Z,60.13
2018-03-03T18:47:04.696Z,51.73
2018-03-03T18:49:36.788Z,93.90
2018-03-03T18:52:06.899Z,52.40
2018-03-03T18:54:36.540Z,63.43
2018-03-03T18:57:05.146Z,73.87
2018-03-03T18:59:34.032Z,39.53
2018-03-03T19:02:03.034Z,33.60
2018-03-03T19:04:31.502Z,31.70
2018-03-03T19:07:00.608Z,32.97
2018-03-03T19:09:28.715Z,34.60
2018-03-03T19:11:59.688Z,33.20
2018-03-03T19:14:33.032Z,38.90
2018-03-03T19:17:02.517Z,32.60
2018-03-03T19:19:32.688Z,32.67
2018-03-03T19:22:00.412Z,34.63
2018-03-03T19:24:32.135Z,33.83
2018-03-03T19:27:01.311Z,34.40
2018-03-03T19:39:10.189Z,30.43
2018-03-03T19:41:41.446Z,30.83
2018-03-03T19:44:10.584Z,33.77
2018-03-03T19:46:38.599Z,32.90
2018-03-03T19:49:08.801Z,33.57
2018-03-03T19:51:38.860Z,32.80
2018-03-03T19:54:07.593Z,33.10
2018-03-03T19:56:36.197Z,32.73
2018-03-03T19:59:05.448Z,34.13
2018-03-03T20:01:34.951Z,33.73
2018-03-03T20:04:04.170Z,33.10
2018-03-03T20:06:34.847Z,34.03
2018-03-03T20:09:04.312Z,34.17
2018-03-03T20:11:34.428Z,30.87
2018-03-03T20:14:03.401Z,31.93
2018-03-03T20:16:32.228Z,32.17
2018-03-03T20:19:00.554Z,29.97
2018-03-03T20:21:33.034Z,32.57
2018-03-03T20:24:03.062Z,30.20
2018-03-03T20:26:34.044Z,31.10
2018-03-03T20:29:04.443Z,30.50
2018-03-03T20:31:35.000Z,32.80
2018-03-03T20:34:02.757Z,31.77
2018-03-03T20:36:31.451Z,31.67
2018-03-03T20:39:01.064Z,31.00
2018-03-03T20:41:29.279Z,32.60
2018-03-03T20:43:58.311Z,32.03
2018-03-03T20:46:27.027Z,32.07
2018-03-03T20:48:56.575Z,31.10
2018-03-03T20:51:25.157Z,33.37
2018-03-03T20:53:53.984Z,32.20
2018-03-03T20:56:23.290Z,34.63
2018-03-03T20:58:52.584Z,34.47
2018-03-03T21:01:22.423Z,32.70
2018-03-03T21:03:51.885Z,35.90
2018-03-03T21:06:19.677Z,34.87
2018-03-03T21:08:48.813Z,36.70
2018-03-03T21:11:23.199Z,36.57
2018-03-03T21:13:53.305Z,37.63
2018-03-03T21:16:24.644Z,39.27
2018-03-03T21:18:54.373Z,37.43
2018-03-03T21:21:23.415Z,36.30
2018-03-03T21:23:54.503Z,38.43
2018-03-03T21:26:22.263Z,35.00
2018-03-03T21:28:51.365Z,37.60
2018-03-03T21:31:18.911Z,36.43
2018-03-03T21:33:49.877Z,39.00
2018-03-03T21:36:18.054Z,39.60
2018-03-03T21:38:47.345Z,40.33
2018-03-03T21:41:16.622Z,64.80
2018-03-03T21:43:45.713Z,51.80
2018-03-03T21:46:13.438Z,77.37
2018-03-03T21:48:42.238Z,71.10
2018-03-03T21:51:11.850Z,92.93
2018-03-03T21:53:40.380Z,62.17
2018-03-03T21:56:11.887Z,78.97
2018-03-03T21:58:40.404Z,57.27
2018-03-03T22:01:09.128Z,59.00
2018-03-03T22:03:38.598Z,48.67
2018-03-03T22:06:06.672Z,51.87
2018-03-03T22:08:35.486Z,65.27
2018-03-03T22:11:04.371Z,48.40
2018-03-03T22:13:34.740Z,89.53
2018-03-03T22:16:03.355Z,69.57
2018-03-03T22:18:32.780Z,50.67
2018-03-03T22:21:02.263Z,54.57
2018-03-03T22:23:31.262Z,46.60
2018-03-03T22:26:01.073Z,45.13
2018-03-03T22:28:30.055Z,45.03
2018-03-03T22:30:59.872Z,45.73
2018-03-03T22:33:28.803Z,51.03
2018-03-03T22:35:59.378Z,44.60
2018-03-03T22:38:29.603Z,48.30
2018-03-03T22:40:59.112Z,48.60
2018-03-03T22:43:27.731Z,47.73
2018-03-03T22:45:57.098Z,50.40
2018-03-03T22:48:28.185Z,49.80
2018-03-03T22:50:57.407Z,55.60
2018-03-03T22:53:27.596Z,53.50
2018-03-03T22:55:55.707Z,56.13
2018-03-03T22:58:24.232Z,59.13
2018-03-03T23:00:51.749Z,53.57
2018-03-03T23:03:20.968Z,53.50
2018-03-03T23:05:49.998Z,57.87
2018-03-03T23:08:20.035Z,58.27
2018-03-03T23:10:50.896Z,56.53
2018-03-03T23:13:22.192Z,59.70
2018-03-03T23:15:50.888Z,60.07
2018-03-03T23:18:19.456Z,60.30
2018-03-03T23:20:48.049Z,57.40
2018-03-03T23:23:17.776Z,57.37
2018-03-03T23:25:46.859Z,89.53
2018-03-03T23:28:17.848Z,72.07
2018-03-03T23:30:46.783Z,81.40
2018-03-03T23:33:16.183Z,81.27
2018-03-03T23:35:45.509Z,79.20
2018-03-03T23:38:15.810Z,66.70
2018-03-03T23:40:44.433Z,61.67
2018-03-03T23:43:14.683Z,61.87
2018-03-03T23:45:44.721Z,64.60
2018-03-03T23:48:13.671Z,64.33
2018-03-03T23:50:41.901Z,64.33
2018-03-03T23:53:10.593Z,60.80
2018-03-03T23:55:39.968Z,58.83
2018-03-03T23:58:10.299Z,59.57
